createdAt,value
2022-09-15T00:02:38.212Z,81.70
2022-09-15T00:05:22.053Z,82.03
2022-09-15T00:08:24.320Z,82.11
2022-09-15T00:11:17.267Z,81.94
2022-09-15T00:14:02.054Z,82.01
2022-09-15T00:19:57.214Z,82.24
2022-09-15T00:22:31.455Z,82.47
2022-09-15T00:28:23.451Z,82.58
2022-09-15T00:31:12.846Z,82.77
2022-09-15T00:33:59.022Z,82.73
2022-09-15T00:36:41.095Z,83.17
2022-09-15T00:42:41.460Z,83.38
2022-09-15T00:49:01.684Z,83.36
2022-09-15T00:52:09.812Z,83.24
2022-09-15T00:55:46.468Z,83.47
2022-09-15T01:10:45.970Z,83.19
2022-09-15T01:13:21.803Z,83.00
2022-09-15T01:16:21.847Z,82.61
2022-09-15T01:19:09.813Z,82.33
2022-09-15T01:25:03.386Z,82.20
2022-09-15T01:28:32.633Z,81.72
2022-09-15T01:31:07.205Z,81.56
2022-09-15T01:33:41.004Z,80.94
2022-09-15T01:36:19.493Z,80.95
2022-09-15T01:38:54.643Z,80.44
2022-09-15T01:41:27.659Z,80.61
2022-09-15T01:44:02.527Z,80.33
2022-09-15T01:46:38.467Z,79.86
2022-09-15T01:49:09.309Z,80.36
2022-09-15T01:51:39.461Z,80.44
2022-09-15T01:54:07.695Z,80.52
2022-09-15T01:56:37.051Z,80.53
2022-09-15T01:59:05.762Z,80.35
2022-09-15T02:01:39.250Z,80.30
2022-09-15T02:04:14.991Z,80.60
2022-09-15T02:06:50.543Z,80.52
2022-09-15T02:09:23.547Z,80.30
2022-09-15T02:12:00.349Z,80.26
2022-09-15T02:14:39.830Z,79.83
2022-09-15T02:17:15.459Z,79.54
2022-09-15T02:19:49.047Z,79.68
2022-09-15T02:22:22.576Z,79.39
2022-09-15T02:24:56.098Z,79.39
2022-09-15T02:27:28.944Z,78.97
2022-09-15T02:30:02.085Z,78.78
2022-09-15T02:32:32.250Z,78.23
2022-09-15T02:35:02.115Z,77.33
2022-09-15T02:37:33.958Z,76.76
2022-09-15T02:40:05.449Z,76.34
2022-09-15T02:42:33.156Z,76.05
2022-09-15T02:45:00.927Z,75.75
2022-09-15T02:47:30.648Z,75.50
2022-09-15T02:49:58.118Z,75.77
2022-09-15T02:52:24.977Z,75.49
2022-09-15T02:54:52.078Z,75.61
2022-09-15T02:57:19.378Z,75.46
2022-09-15T02:59:46.257Z,75.49
2022-09-15T03:02:14.735Z,75.24
2022-09-15T03:04:43.239Z,75.27
2022-09-15T03:07:09.997Z,75.23
2022-09-15T03:09:38.659Z,74.99
2022-09-15T03:12:06.216Z,74.98
2022-09-15T03:14:55.905Z,74.58
2022-09-15T03:17:59.377Z,74.52
2022-09-15T03:20:34.449Z,74.48
2022-09-15T03:24:01.376Z,74.12
2022-09-15T03:28:38.069Z,74.47
2022-09-15T03:33:09.370Z,74.28
2022-09-15T03:36:08.111Z,73.83
2022-09-15T03:38:44.284Z,73.62
2022-09-15T03:41:16.995Z,73.22
2022-09-15T03:44:11.828Z,73.14
2022-09-15T03:46:40.856Z,72.44
2022-09-15T03:49:51.212Z,70.93
2022-09-15T03:52:23.883Z,70.12
2022-09-15T03:54:50.797Z,69.61
2022-09-15T03:57:17.563Z,68.84
2022-09-15T03:59:44.563Z,68.41
2022-09-15T04:02:11.398Z,67.83
2022-09-15T04:04:38.462Z,67.80
2022-09-15T04:07:05.446Z,67.23
2022-09-15T04:09:35.959Z,66.68
2022-09-15T04:12:06.898Z,66.65
2022-09-15T04:14:33.947Z,67.11
2022-09-15T04:17:03.771Z,66.94
2022-09-15T04:19:32.416Z,66.56
2022-09-15T04:21:59.040Z,66.60
2022-09-15T04:24:28.110Z,66.62
2022-09-15T04:26:56.641Z,66.76
2022-09-15T04:29:23.869Z,66.30
2022-09-15T04:31:50.983Z,66.56
2022-09-15T04:34:17.940Z,66.49
2022-09-15T04:36:45.122Z,66.46
2022-09-15T04:39:11.951Z,66.44
2022-09-15T04:41:39.239Z,66.67
2022-09-15T04:44:07.933Z,66.55
2022-09-15T04:46:35.038Z,66.65
2022-09-15T04:49:02.334Z,66.45
2022-09-15T04:51:29.331Z,66.56
2022-09-15T04:53:57.669Z,66.66
2022-09-15T04:56:25.909Z,66.80
2022-09-15T04:58:56.470Z,66.68
2022-09-15T05:01:30.299Z,66.88
2022-09-15T05:03:58.157Z,67.19
2022-09-15T05:06:26.800Z,67.19
2022-09-15T05:08:55.802Z,67.25
2022-09-15T05:11:24.600Z,67.28
2022-09-15T05:13:51.332Z,67.21
2022-09-15T05:16:20.608Z,67.50
2022-09-15T05:18:51.093Z,67.69
2022-09-15T05:21:20.215Z,67.59
2022-09-15T05:23:47.937Z,67.67
2022-09-15T05:26:18.099Z,67.84
2022-09-15T05:28:44.978Z,67.93
2022-09-15T05:31:22.117Z,68.23
2022-09-15T05:33:52.308Z,68.39
2022-09-15T05:36:22.787Z,68.15
2022-09-15T05:38:49.518Z,68.32
2022-09-15T05:41:19.111Z,68.00
2022-09-15T05:43:47.778Z,68.13
2022-09-15T05:46:19.074Z,68.24
2022-09-15T05:48:46.472Z,68.20
2022-09-15T05:51:15.708Z,68.30
2022-09-15T05:53:43.434Z,68.34
2022-09-15T05:56:12.580Z,68.14
2022-09-15T05:58:41.716Z,68.42
2022-09-15T06:01:14.520Z,68.49
2022-09-15T06:03:42.711Z,68.73
2022-09-15T06:06:10.910Z,68.79
2022-09-15T06:08:44.009Z,68.84
2022-09-15T06:11:14.668Z,68.75
2022-09-15T06:13:42.781Z,68.94
2022-09-15T06:16:11.775Z,68.64
2022-09-15T06:18:42.528Z,68.69
2022-09-15T06:21:11.260Z,68.75
2022-09-15T06:23:39.972Z,68.53
2022-09-15T06:26:09.155Z,68.78
2022-09-15T06:28:36.350Z,68.65
2022-09-15T06:31:03.293Z,68.56
2022-09-15T06:33:32.957Z,69.03
2022-09-15T06:36:03.398Z,69.81
2022-09-15T06:38:31.336Z,71.32
2022-09-15T06:41:01.285Z,72.14
2022-09-15T06:43:36.064Z,72.98
2022-09-15T06:46:08.168Z,73.03
2022-09-15T06:48:35.822Z,73.43
2022-09-15T06:51:05.224Z,73.24
2022-09-15T06:53:36.206Z,73.25
2022-09-15T06:56:06.319Z,72.91
2022-09-15T06:58:35.468Z,73.26
2022-09-15T07:01:03.593Z,73.12
2022-09-15T07:03:30.883Z,72.93
2022-09-15T07:05:58.082Z,72.95
2022-09-15T07:08:24.871Z,72.41
2022-09-15T07:10:51.577Z,72.98
2022-09-15T07:13:19.865Z,72.67
2022-09-15T07:15:50.927Z,72.42
2022-09-15T07:18:17.966Z,71.74
2022-09-15T07:20:44.949Z,71.49
2022-09-15T07:23:12.009Z,70.99
2022-09-15T07:25:38.781Z,70.99
2022-09-15T07:28:05.511Z,70.41
2022-09-15T07:30:33.561Z,70.40
2022-09-15T07:33:00.219Z,70.11
2022-09-15T07:35:27.157Z,69.94
2022-09-15T07:37:53.942Z,69.55
2022-09-15T07:40:20.726Z,69.02
2022-09-15T07:42:47.729Z,69.17
2022-09-15T07:45:15.139Z,69.02
2022-09-15T07:47:43.330Z,68.99
2022-09-15T07:50:10.230Z,69.16
2022-09-15T07:52:36.924Z,69.26
2022-09-15T07:55:09.968Z,69.35
2022-09-15T07:57:37.088Z,69.32
2022-09-15T08:00:07.721Z,69.46
2022-09-15T08:02:34.665Z,69.58
2022-09-15T08:05:02.907Z,69.51
2022-09-15T08:07:31.226Z,69.36
2022-09-15T08:10:04.738Z,69.89
2022-09-15T08:12:33.859Z,69.13
2022-09-15T08:15:01.016Z,69.28
2022-09-15T08:17:30.443Z,68.85
2022-09-15T08:19:57.347Z,68.08
2022-09-15T08:22:25.817Z,68.15
2022-09-15T08:24:54.732Z,67.83
2022-09-15T08:27:21.779Z,67.92
2022-09-15T08:29:49.125Z,67.49
2022-09-15T08:32:15.896Z,67.38
2022-09-15T08:34:43.699Z,67.40
2022-09-15T08:37:10.555Z,65.98
2022-09-15T08:39:39.504Z,64.82
2022-09-15T08:42:06.536Z,64.57
2022-09-15T08:44:40.869Z,64.57
2022-09-15T08:47:14.094Z,63.42
2022-09-15T08:49:51.876Z,63.25
2022-09-15T08:52:24.440Z,62.15
2022-09-15T08:54:59.215Z,60.94
2022-09-15T08:57:26.520Z,60.65
2022-09-15T08:59:54.823Z,60.36
2022-09-15T09:02:50.188Z,59.51
2022-09-15T09:05:50.257Z,59.89
2022-09-15T09:08:32.661Z,59.36
2022-09-15T09:11:16.581Z,58.06
2022-09-15T09:13:50.453Z,58.19
2022-09-15T09:16:41.520Z,58.08
2022-09-15T09:19:35.417Z,56.61
2022-09-15T09:22:09.565Z,58.39
2022-09-15T09:24:41.008Z,58.54
2022-09-15T09:27:12.957Z,57.69
2022-09-15T09:29:43.540Z,59.55
2022-09-15T09:32:21.534Z,59.07
2022-09-15T09:34:57.901Z,59.09
2022-09-15T09:37:24.625Z,59.73
2022-09-15T09:39:51.404Z,59.40
2022-09-15T09:42:20.981Z,59.42
2022-09-15T09:44:48.653Z,58.57
2022-09-15T09:47:15.327Z,58.90
2022-09-15T09:49:46.110Z,59.41
2022-09-15T09:52:33.936Z,60.70
2022-09-15T09:55:05.015Z,61.73
2022-09-15T09:57:40.535Z,62.42
2022-09-15T10:00:36.292Z,63.08
2022-09-15T10:03:11.826Z,63.63
2022-09-15T10:05:40.300Z,65.24
2022-09-15T10:08:38.153Z,64.22
2022-09-15T10:11:12.181Z,64.01
2022-09-15T10:13:58.832Z,63.58
2022-09-15T10:21:45.929Z,62.89
2022-09-15T10:24:35.209Z,64.10
2022-09-15T10:45:22.322Z,62.70
2022-09-15T10:47:17.505Z,63.95
2022-09-15T10:48:36.235Z,63.29
2022-09-15T10:52:18.542Z,63.02
2022-09-15T11:02:23.930Z,60.25
2022-09-15T11:09:33.478Z,56.74
2022-09-15T11:16:19.523Z,53.48
2022-09-15T11:19:41.204Z,55.76
2022-09-15T11:29:40.882Z,44.68
2022-09-15T11:33:06.955Z,46.76
2022-09-15T12:02:12.572Z,43.09
2022-09-15T12:25:15.691Z,46.83
2022-09-15T12:28:18.264Z,46.34
2022-09-15T12:33:16.192Z,47.33
2022-09-15T12:35:01.005Z,47.42
2022-09-15T12:37:38.571Z,48.14
2022-09-15T12:40:58.454Z,51.36
2022-09-15T12:43:33.242Z,52.35
2022-09-15T12:46:17.575Z,52.70
2022-09-15T12:48:47.851Z,53.47
2022-09-15T12:51:28.623Z,55.22
2022-09-15T12:54:02.054Z,55.01
2022-09-15T12:56:42.682Z,55.05
2022-09-15T12:59:14.299Z,54.61
2022-09-15T13:01:53.615Z,54.67
2022-09-15T13:04:49.294Z,53.28
2022-09-15T13:07:36.150Z,52.31
2022-09-15T13:10:41.658Z,52.49
2022-09-15T13:24:40.241Z,54.47
2022-09-15T13:31:22.287Z,58.33
2022-09-15T13:38:09.543Z,62.71
2022-09-15T13:45:22.522Z,60.97
2022-09-15T14:18:23.140Z,59.77
2022-09-15T14:21:05.844Z,60.34
2022-09-15T14:24:00.226Z,61.89
2022-09-15T14:26:44.764Z,60.44
2022-09-15T14:32:26.969Z,64.46
2022-09-15T14:45:58.265Z,67.33
2022-09-15T15:58:27.424Z,61.88
2022-09-15T16:01:35.691Z,61.62
2022-09-15T16:04:04.096Z,62.16
2022-09-15T16:07:33.077Z,62.83
2022-09-15T16:10:12.911Z,64.45
2022-09-15T16:12:41.792Z,64.90
2022-09-15T16:15:14.962Z,65.44
2022-09-15T16:17:45.971Z,65.24
2022-09-15T16:20:18.627Z,64.75
2022-09-15T16:37:01.329Z,64.92
2022-09-15T16:39:33.291Z,64.81
2022-09-15T16:49:01.874Z,64.81
2022-09-15T16:51:31.822Z,64.76
2022-09-15T16:54:05.616Z,66.09
2022-09-15T16:56:35.682Z,64.84
2022-09-15T16:59:11.261Z,64.55
2022-09-15T17:01:39.064Z,65.13
2022-09-15T17:05:08.393Z,67.66
2022-09-15T17:11:16.130Z,68.61
2022-09-15T17:14:03.061Z,68.37
2022-09-15T17:16:40.779Z,68.67
2022-09-15T17:19:12.783Z,68.64
2022-09-15T17:21:42.589Z,69.55
2022-09-15T17:29:04.700Z,69.81
2022-09-15T17:34:40.844Z,70.39
2022-09-15T17:50:54.344Z,70.53
2022-09-15T17:53:29.175Z,70.58
2022-09-15T17:55:57.612Z,70.87
2022-09-15T17:58:30.536Z,70.77
2022-09-15T18:01:09.529Z,70.88
2022-09-15T18:04:00.042Z,71.29
2022-09-15T18:06:47.393Z,71.28
2022-09-15T18:09:27.600Z,71.54
2022-09-15T18:11:59.151Z,71.41
2022-09-15T18:14:31.362Z,71.87
2022-09-15T18:17:07.954Z,71.77
2022-09-15T18:19:35.095Z,72.13
2022-09-15T18:22:13.216Z,71.95
2022-09-15T18:27:59.747Z,71.97
2022-09-15T18:30:42.168Z,72.14
2022-09-15T18:37:04.328Z,72.91
2022-09-15T18:39:51.813Z,72.26
2022-09-15T18:59:50.813Z,71.96
2022-09-15T19:05:25.500Z,72.26
2022-09-15T19:08:16.258Z,72.96
2022-09-15T19:30:32.349Z,75.19
2022-09-15T19:33:11.781Z,75.62
2022-09-15T19:35:46.413Z,75.81
2022-09-15T19:38:21.457Z,75.95
2022-09-15T19:41:07.212Z,76.15
2022-09-15T19:43:42.589Z,76.01
2022-09-15T19:46:17.036Z,76.85
2022-09-15T19:49:19.577Z,77.23
2022-09-15T19:51:46.519Z,77.24
2022-09-15T19:54:20.857Z,77.33
2022-09-15T19:56:47.796Z,77.55
2022-09-15T23:54:55.615Z,84.13
